Time;durP1;ratioP1;P1;durP2;ratioP2;P2;SDS_P1;SDS_P2;PMS_P1;PMS_P2;Temp;Humidity;BMP_temperature;BMP_pressure;BME280_temperature;BME280_humidity;BME280_pressure;Samples;Min_cycle;Max_cycle;Signal;HPM_P1;HPM_P2
2024/02/26 00:02:14;;;;;;;5.25;4.65;;;;;;;5.39;100.00;99855.25;10456835;28;20025;-68
2024/02/26 00:07:14;;;;;;;3.85;3.55;;;;;;;5.42;100.00;99854.06;10456480;28;20041;-68
2024/02/26 00:12:15;;;;;;;4.93;4.35;;;;;;;5.35;100.00;99852.13;10456310;28;20028;-67
2024/02/26 00:17:15;;;;;;;4.82;4.05;;;;;;;5.37;100.00;99862.69;10455948;28;20037;-68
2024/02/26 00:22:16;;;;;;;3.70;3.38;;;;;;;5.40;100.00;99872.22;10455781;28;20099;-68
2024/02/26 00:27:16;;;;;;;8.30;4.50;;;;;;;5.41;100.00;99863.16;10456023;28;20534;-69
2024/02/26 00:32:17;;;;;;;3.85;3.45;;;;;;;5.42;100.00;99860.25;10455454;28;20473;-68
2024/02/26 00:37:18;;;;;;;3.78;3.33;;;;;;;5.48;100.00;99869.41;10455363;28;20051;-68
2024/02/26 00:42:19;;;;;;;5.57;4.97;;;;;;;5.51;100.00;99864.50;10471079;28;20083;-68
2024/02/26 00:47:19;;;;;;;4.38;3.97;;;;;;;5.55;100.00;99865.81;10454901;28;20060;-69
2024/02/26 00:52:19;;;;;;;9.13;4.25;;;;;;;5.57;100.00;99863.75;10454235;28;20190;-68
2024/02/26 00:57:20;;;;;;;5.65;3.60;;;;;;;5.63;100.00;99872.06;10453307;28;20132;-69
2024/02/26 01:02:20;;;;;;;3.10;2.80;;;;;;;5.68;100.00;99864.25;10452522;28;20029;-67
2024/02/26 01:07:21;;;;;;;4.68;3.80;;;;;;;5.67;100.00;99871.47;10454098;28;20124;-67
2024/02/26 01:12:21;;;;;;;7.10;4.28;;;;;;;5.65;100.00;99873.53;10452417;28;20106;-68
2024/02/26 01:17:21;;;;;;;3.95;3.70;;;;;;;5.62;100.00;99865.88;10452915;28;20128;-69
2024/02/26 01:22:22;;;;;;;4.18;3.80;;;;;;;5.66;100.00;99875.19;10454174;28;20082;-68
2024/02/26 01:27:26;;;;;;;3.72;3.22;;;;;;;5.74;100.00;99871.53;10453924;28;20048;-68
2024/02/26 01:32:27;;;;;;;3.72;3.42;;;;;;;5.72;100.00;99862.88;10451890;28;20392;-68
2024/02/26 01:37:29;;;;;;;3.97;3.47;;;;;;;5.67;100.00;99860.75;10453432;28;20264;-68
2024/02/26 01:42:32;;;;;;;4.28;3.95;;;;;;;5.66;100.00;99852.88;10451938;28;20036;-67
2024/02/26 01:47:32;;;;;;;5.85;4.35;;;;;;;5.64;100.00;99871.84;10452245;28;20041;-68
2024/02/26 01:52:33;;;;;;;4.18;3.85;;;;;;;5.68;100.00;99870.47;10467273;28;20048;-68
2024/02/26 01:57:33;;;;;;;5.63;5.10;;;;;;;5.72;100.00;99895.09;10465639;28;20033;-68
2024/02/26 02:02:34;;;;;;;5.20;4.80;;;;;;;5.68;100.00;99900.03;10450683;28;20171;-68
2024/02/26 02:07:35;;;;;;;5.18;4.68;;;;;;;5.65;100.00;99905.78;10467028;28;20049;-68
2024/02/26 02:12:38;;;;;;;4.57;4.22;;;;;;;5.66;100.00;99909.28;10450691;28;20121;-67
2024/02/26 02:17:39;;;;;;;5.28;4.85;;;;;;;5.65;100.00;99897.72;10450887;28;20137;-68
2024/02/26 02:22:39;;;;;;;8.35;4.82;;;;;;;5.72;100.00;99912.03;10433139;28;20044;-68
2024/02/26 02:27:40;;;;;;;7.53;5.35;;;;;;;5.75;100.00;99908.16;10449703;28;20405;-68
2024/02/26 02:32:41;;;;;;;5.22;4.80;;;;;;;5.62;100.00;99913.38;10466108;28;20035;-67
2024/02/26 02:37:41;;;;;;;7.88;6.15;;;;;;;5.67;100.00;99925.19;10449462;28;20047;-68
2024/02/26 02:42:42;;;;;;;6.90;6.18;;;;;;;5.64;100.00;99922.88;10449951;28;20033;-67
2024/02/26 02:47:42;;;;;;;7.43;6.15;;;;;;;5.65;100.00;99912.97;10449706;28;20358;-67
2024/02/26 02:52:43;;;;;;;6.63;5.57;;;;;;;5.68;100.00;99936.78;10433206;28;20059;-68
2024/02/26 02:57:44;;;;;;;7.57;6.82;;;;;;;5.70;100.00;99942.78;10451131;28;20637;-67
2024/02/26 03:02:46;;;;;;;9.23;5.95;;;;;;;5.73;100.00;99937.88;10450425;28;20512;-68
2024/02/26 03:07:46;;;;;;;6.28;5.68;;;;;;;5.70;100.00;99930.19;10449997;28;20090;-68
2024/02/26 03:12:47;;;;;;;6.55;5.78;;;;;;;5.67;100.00;99957.44;10448503;28;20542;-67
2024/02/26 03:17:47;;;;;;;5.10;4.65;;;;;;;5.68;100.00;99966.31;10448189;28;20091;-68
2024/02/26 03:22:47;;;;;;;6.10;5.53;;;;;;;5.69;100.00;99963.47;10448312;28;20072;-69
2024/02/26 03:27:48;;;;;;;6.82;5.72;;;;;;;5.64;100.00;99949.75;10456726;28;20056;-68
2024/02/26 03:32:48;;;;;;;7.57;5.80;;;;;;;5.56;100.00;99974.03;10457737;28;20037;-68
2024/02/26 03:37:50;;;;;;;6.60;6.00;;;;;;;5.50;100.00;99981.00;10457884;28;20059;-69
2024/02/26 03:42:52;;;;;;;5.63;5.15;;;;;;;5.55;100.00;99970.53;10457663;28;20033;-68
2024/02/26 03:47:53;;;;;;;6.30;5.68;;;;;;;5.60;100.00;99975.31;10455683;28;20037;-68
2024/02/26 03:52:54;;;;;;;5.22;4.82;;;;;;;5.49;100.00;99995.44;10456529;28;20139;-69
2024/02/26 03:57:54;;;;;;;7.75;6.07;;;;;;;5.56;100.00;99998.22;10458290;28;20376;-68
2024/02/26 04:02:55;;;;;;;5.25;4.80;;;;;;;5.53;100.00;99986.00;10457679;28;20060;-68
2024/02/26 04:07:55;;;;;;;9.32;7.30;;;;;;;5.49;100.00;99984.72;10457164;28;20125;-69
2024/02/26 04:12:56;;;;;;;10.18;6.90;;;;;;;5.44;100.00;99997.03;10457084;28;20025;-69
2024/02/26 04:17:56;;;;;;;11.52;7.20;;;;;;;5.39;100.00;100018.22;10454972;28;20591;-67
2024/02/26 04:22:56;;;;;;;9.27;7.97;;;;;;;5.39;100.00;100016.34;10455305;28;20033;-68
2024/02/26 04:27:57;;;;;;;8.45;7.25;;;;;;;5.46;100.00;100013.78;10456897;28;20102;-68
2024/02/26 04:32:57;;;;;;;8.75;7.28;;;;;;;5.49;100.00;100008.03;10456266;28;20118;-68
2024/02/26 04:37:57;;;;;;;8.77;7.55;;;;;;;5.46;100.00;100021.84;10453756;28;20033;-68
2024/02/26 04:42:58;;;;;;;9.23;8.32;;;;;;;5.48;100.00;100019.78;10454213;28;20499;-67
2024/02/26 04:47:59;;;;;;;11.98;8.82;;;;;;;5.45;100.00;100025.53;10453165;28;20044;-68
2024/02/26 04:52:59;;;;;;;14.63;8.07;;;;;;;5.46;100.00;100044.16;10454412;28;20056;-67
2024/02/26 04:58:00;;;;;;;11.82;10.23;;;;;;;5.48;100.00;100041.25;10470533;28;20041;-68
2024/02/26 05:03:00;;;;;;;10.77;8.45;;;;;;;5.45;100.00;100042.47;10452761;28;20140;-68
2024/02/26 05:08:02;;;;;;;12.68;10.88;;;;;;;5.40;100.00;100057.47;10454266;28;20065;-68
2024/02/26 05:13:03;;;;;;;12.50;8.05;;;;;;;5.39;100.00;100058.47;10453894;28;20048;-67
2024/02/26 05:18:04;;;;;;;12.40;8.73;;;;;;;5.39;100.00;100064.69;10435774;28;20033;-69
2024/02/26 05:23:05;;;;;;;10.15;9.15;;;;;;;5.35;100.00;100066.91;10454295;28;20049;-68
2024/02/26 05:28:05;;;;;;;13.18;10.73;;;;;;;5.27;100.00;100067.00;10453994;28;20037;-67
2024/02/26 05:33:05;;;;;;;9.20;8.30;;;;;;;5.28;100.00;100062.47;10452217;28;20032;-68
2024/02/26 05:38:06;;;;;;;19.02;9.35;;;;;;;5.25;100.00;100069.03;10390979;28;20123;-69
2024/02/26 05:43:06;;;;;;;18.85;9.30;;;;;;;5.15;100.00;100067.63;10426731;28;20134;-69
2024/02/26 05:48:07;;;;;;;13.43;10.23;;;;;;;5.17;100.00;100073.63;10434339;28;20048;-70
2024/02/26 05:53:07;;;;;;;11.15;8.02;;;;;;;5.18;100.00;100081.53;10451607;28;20060;-69
2024/02/26 05:58:08;;;;;;;11.82;10.68;;;;;;;5.20;100.00;100081.31;10467510;28;20033;-68
2024/02/26 06:03:09;;;;;;;14.18;10.20;;;;;;;5.18;100.00;100103.00;10433946;28;20044;-67
2024/02/26 06:08:09;;;;;;;12.55;9.57;;;;;;;5.26;100.00;100124.38;10451978;28;20397;-67
2024/02/26 06:13:10;;;;;;;15.05;9.68;;;;;;;5.33;100.00;100125.34;10368706;28;20072;-69
2024/02/26 06:18:10;;;;;;;18.40;10.15;;;;;;;5.26;100.00;100140.47;10450200;28;20029;-69
2024/02/26 06:23:11;;;;;;;16.17;11.57;;;;;;;5.24;100.00;100136.34;10451243;28;20028;-68
2024/02/26 06:28:11;;;;;;;15.90;13.02;;;;;;;5.27;100.00;100138.66;10450426;28;20469;-68
2024/02/26 06:33:12;;;;;;;17.83;11.35;;;;;;;5.29;100.00;100155.38;10451345;28;20114;-68
2024/02/26 06:38:13;;;;;;;15.68;13.25;;;;;;;5.19;100.00;100158.34;10450640;28;20124;-68
2024/02/26 06:43:14;;;;;;;15.82;12.75;;;;;;;5.18;100.00;100162.03;10449957;28;20041;-68
2024/02/26 06:48:14;;;;;;;20.10;14.52;;;;;;;5.16;100.00;100173.97;10448315;28;20037;-68
2024/02/26 06:53:14;;;;;;;23.73;15.70;;;;;;;5.20;100.00;100188.69;10449953;28;20091;-69
2024/02/26 06:58:15;;;;;;;21.10;14.70;;;;;;;5.17;100.00;100192.59;10449844;28;20405;-69
2024/02/26 07:03:15;;;;;;;21.77;15.90;;;;;;;5.25;100.00;100200.56;10449381;28;20186;-69
2024/02/26 07:08:16;;;;;;;24.40;17.58;;;;;;;5.28;100.00;100200.19;10449551;28;20038;-67
2024/02/26 07:13:16;;;;;;;15.57;13.90;;;;;;;5.31;100.00;100213.25;10448432;28;20033;-68
2024/02/26 07:18:16;;;;;;;25.10;16.33;;;;;;;5.27;100.00;100233.44;10448034;28;20435;-68
2024/02/26 07:23:17;;;;;;;16.45;13.82;;;;;;;5.22;100.00;100234.97;10449612;28;20033;-70
2024/02/26 07:28:17;;;;;;;20.45;15.55;;;;;;;5.18;100.00;100234.50;10450246;28;20378;-69
2024/02/26 07:33:18;;;;;;;16.73;14.00;;;;;;;5.22;100.00;100246.56;10450606;28;20099;-69
2024/02/26 07:38:18;;;;;;;25.27;15.18;;;;;;;5.16;100.00;100236.53;10449610;28;20451;-68
2024/02/26 07:43:19;;;;;;;15.55;13.60;;;;;;;5.14;100.00;100260.03;10448294;28;20052;-68
2024/02/26 07:48:19;;;;;;;13.40;11.93;;;;;;;5.20;100.00;100259.34;10449149;28;20067;-69
2024/02/26 07:53:19;;;;;;;11.90;10.68;;;;;;;5.21;100.00;100279.78;10450134;28;20053;-68
2024/02/26 07:58:20;;;;;;;12.75;11.48;;;;;;;5.25;100.00;100280.25;10448751;28;20109;-68
2024/02/26 08:03:20;;;;;;;14.60;10.02;;;;;;;5.22;100.00;100284.13;10448999;28;20183;-69
2024/02/26 08:08:21;;;;;;;12.52;10.18;;;;;;;5.27;100.00;100275.56;10448948;28;20558;-70
2024/02/26 08:13:21;;;;;;;9.35;8.30;;;;;;;5.23;100.00;100307.28;10454289;28;20037;-68
2024/02/26 08:18:22;;;;;;;9.75;8.23;;;;;;;5.27;100.00;100305.09;10455776;28;20055;-68
2024/02/26 08:23:22;;;;;;;11.52;8.25;;;;;;;5.28;100.00;100310.25;10454463;28;20040;-69
2024/02/26 08:28:23;;;;;;;7.82;7.13;;;;;;;5.22;100.00;100319.03;10454994;28;20037;-69
2024/02/26 08:33:23;;;;;;;14.80;6.88;;;;;;;5.29;100.00;100322.66;10438232;28;20068;-68
2024/02/26 08:38:23;;;;;;;9.90;6.45;;;;;;;5.32;100.00;100335.72;10437501;28;20397;-69
2024/02/26 08:43:24;;;;;;;7.38;6.00;;;;;;;5.35;100.00;100334.56;10455189;28;20040;-69
2024/02/26 08:48:24;;;;;;;6.90;6.20;;;;;;;5.37;100.00;100345.97;10454525;28;20072;-69
2024/02/26 08:53:26;;;;;;;6.22;5.65;;;;;;;5.45;100.00;100355.81;10454532;28;20144;-69
2024/02/26 08:58:27;;;;;;;8.23;7.45;;;;;;;5.43;100.00;100376.66;10454512;28;20049;-69
2024/02/26 09:03:28;;;;;;;8.75;6.25;;;;;;;5.45;100.00;100367.38;10455181;28;20037;-69
2024/02/26 09:08:29;;;;;;;6.32;5.72;;;;;;;5.48;100.00;100375.06;10452646;28;20039;-69
2024/02/26 09:13:29;;;;;;;5.95;5.40;;;;;;;5.56;100.00;100366.97;10454611;28;20550;-69
2024/02/26 09:18:29;;;;;;;4.65;4.25;;;;;;;5.66;100.00;100408.91;10453157;28;20056;-69
2024/02/26 09:23:30;;;;;;;8.73;6.30;;;;;;;5.73;100.00;100391.88;10453734;28;20033;-68
2024/02/26 09:28:34;;;;;;;5.90;5.28;;;;;;;5.72;100.00;100405.50;10453539;28;20186;-68
2024/02/26 09:33:35;;;;;;;5.10;4.53;;;;;;;5.73;100.00;100407.16;10451868;28;20486;-70
2024/02/26 09:38:37;;;;;;;6.00;5.30;;;;;;;5.67;100.00;100432.88;10453506;28;20041;-68
2024/02/26 09:43:39;;;;;;;6.55;4.85;;;;;;;5.59;100.00;100414.13;10453042;28;20037;-69
2024/02/26 09:48:40;;;;;;;5.65;4.63;;;;;;;5.68;100.00;100448.00;10451820;28;20036;-68
2024/02/26 09:53:42;;;;;;;7.28;5.05;;;;;;;5.65;100.00;100453.72;10452124;28;20064;-69
2024/02/26 09:58:44;;;;;;;6.82;4.63;;;;;;;5.68;100.00;100488.28;10450962;28;20087;-69
2024/02/26 10:03:45;;;;;;;4.65;4.25;;;;;;;5.73;100.00;100471.63;10450877;28;20037;-69
2024/02/26 10:08:46;;;;;;;5.07;4.68;;;;;;;5.83;100.00;100486.50;10434089;28;20037;-69
2024/02/26 10:13:46;;;;;;;7.80;5.57;;;;;;;5.72;100.00;100492.31;10433870;28;20050;-69
2024/02/26 10:18:48;;;;;;;7.20;5.80;;;;;;;5.78;100.00;100496.13;10434070;28;20090;-68
2024/02/26 10:23:48;;;;;;;5.60;4.93;;;;;;;6.02;100.00;100506.75;10450670;28;20037;-70
2024/02/26 10:28:49;;;;;;;6.05;5.53;;;;;;;6.05;100.00;100509.09;10450734;28;20124;-69
2024/02/26 10:33:49;;;;;;;6.00;5.47;;;;;;;6.17;100.00;100517.59;10432914;28;20078;-68
2024/02/26 10:38:50;;;;;;;5.55;5.05;;;;;;;6.31;100.00;100520.53;10451371;28;20047;-69
2024/02/26 10:43:51;;;;;;;6.25;4.90;;;;;;;6.24;100.00;100533.84;10449857;28;20052;-69
2024/02/26 10:48:53;;;;;;;4.78;4.35;;;;;;;6.29;100.00;100540.38;10449001;28;20047;-69
2024/02/26 10:53:57;;;;;;;6.38;5.20;;;;;;;6.29;100.00;100551.13;10432665;28;20137;-69
2024/02/26 10:58:58;;;;;;;7.13;5.10;;;;;;;6.21;100.00;100551.16;10450321;28;20543;-70
2024/02/26 11:04:01;;;;;;;6.40;5.32;;;;;;;6.07;100.00;100565.38;10432390;28;20071;-69
2024/02/26 11:09:02;;;;;;;6.57;5.93;;;;;;;5.98;100.00;100577.19;10432438;28;20069;-70
2024/02/26 11:14:03;;;;;;;6.95;5.95;;;;;;;5.85;100.00;100584.94;10448734;28;20523;-70
2024/02/26 11:19:03;;;;;;;8.00;6.20;;;;;;;5.85;100.00;100604.59;10415055;28;20037;-69
2024/02/26 11:24:09;;;;;;;6.97;5.80;;;;;;;5.85;100.00;100582.25;10432160;28;20395;-69
2024/02/26 11:29:10;;;;;;;5.93;5.43;;;;;;;5.65;100.00;100595.22;10448389;28;20039;-69
2024/02/26 11:34:10;;;;;;;6.35;5.72;;;;;;;5.49;100.00;100606.88;10448243;28;20033;-68
2024/02/26 11:39:12;;;;;;;6.00;5.40;;;;;;;5.65;100.00;100616.72;10448032;28;20048;-67
2024/02/26 11:44:13;;;;;;;6.38;5.25;;;;;;;5.80;100.00;100609.63;10448459;28;20042;-67
2024/02/26 11:49:28;;;;;;;9.55;4.78;;;;;;;5.81;100.00;100612.16;10456586;28;20615;-67
2024/02/26 11:54:54;;;;;;;4.55;3.95;;;;;;;5.96;100.00;100628.41;10455137;28;20053;-67
2024/02/26 12:00:12;;;;;;;5.40;4.57;;;;;;;5.93;100.00;100625.22;10439229;28;20040;-66
2024/02/26 12:05:15;;;;;;;5.60;4.38;;;;;;;5.88;100.00;100622.22;10457081;28;20037;-66
2024/02/26 12:10:26;;;;;;;4.97;4.57;;;;;;;5.85;100.00;100628.78;10454868;28;20048;-66
2024/02/26 12:15:33;;;;;;;6.15;5.18;;;;;;;5.97;100.00;100640.03;10456267;28;20059;-66
2024/02/26 12:20:35;;;;;;;0.70;0.70;;;;;;;6.17;100.00;100652.03;10437956;28;20119;-66
2024/02/26 12:25:35;;;;;;;0.63;0.63;;;;;;;6.08;100.00;100655.75;10454621;28;20037;-66
2024/02/26 12:30:35;;;;;;;0.93;0.93;;;;;;;6.07;100.00;100656.78;10455602;28;20037;-65
2024/02/26 12:35:36;;;;;;;0.35;0.35;;;;;;;6.10;100.00;100656.44;10455340;28;20472;-67
2024/02/26 12:40:36;;;;;;;0.50;0.50;;;;;;;6.04;100.00;100667.88;10420549;28;20033;-66
2024/02/26 12:45:37;;;;;;;0.52;0.52;;;;;;;5.97;100.00;100659.66;10436742;28;20481;-67
2024/02/26 12:50:37;;;;;;;0.50;0.50;;;;;;;5.94;100.00;100686.06;10419831;28;20049;-67
2024/02/26 12:55:39;;;;;;;0.85;0.85;;;;;;;5.91;100.00;100683.69;10454060;28;20186;-66
2024/02/26 13:00:40;;;;;;;0.52;0.52;;;;;;;5.98;100.00;100682.84;10452454;28;20052;-66
2024/02/26 13:05:41;;;;;;;0.40;0.40;;;;;;;6.18;100.00;100706.63;10452720;28;20044;-67
2024/02/26 13:10:41;;;;;;;0.70;0.70;;;;;;;6.34;100.00;100706.56;10453765;28;20071;-67
2024/02/26 13:15:42;;;;;;;0.60;0.60;;;;;;;6.48;100.00;100703.16;10453477;28;20169;-66
2024/02/26 13:20:42;;;;;;;0.70;0.70;;;;;;;6.69;100.00;100723.22;10452976;28;20448;-68
2024/02/26 13:25:43;;;;;;;0.50;0.50;;;;;;;6.82;100.00;100719.94;10454125;28;20159;-66
2024/02/26 13:30:56;;;;;;;0.50;0.50;;;;;;;6.83;100.00;100732.38;10454119;28;20412;-67
2024/02/26 13:35:56;;;;;;;0.55;0.55;;;;;;;6.85;100.00;100747.34;10436934;28;20033;-68
2024/02/26 13:40:57;;;;;;;0.40;0.40;;;;;;;7.01;100.00;100732.09;10452236;28;20388;-69
2024/02/26 13:45:57;;;;;;;0.75;0.68;;;;;;;7.02;100.00;100736.47;10435737;28;20040;-68
2024/02/26 13:50:58;;;;;;;0.65;0.65;;;;;;;6.94;100.00;100751.66;10451829;28;20065;-68
2024/02/26 13:56:00;;;;;;;1.35;1.25;;;;;;;6.92;100.00;100748.31;10452778;28;20055;-68
2024/02/26 14:01:03;;;;;;;4.55;1.27;;;;;;;6.95;100.00;100766.78;10452479;28;20035;-68
2024/02/26 14:06:04;;;;;;;0.50;0.50;;;;;;;6.97;100.00;100769.31;10450661;28;20125;-69
2024/02/26 14:11:04;;;;;;;0.95;0.95;;;;;;;7.10;100.00;100774.94;10449352;28;20051;-67
2024/02/26 14:16:05;;;;;;;0.60;0.60;;;;;;;7.15;100.00;100779.81;10450303;28;20071;-69
2024/02/26 14:21:05;;;;;;;0.50;0.50;;;;;;;7.10;100.00;100784.88;10450799;28;20181;-68
2024/02/26 14:26:06;;;;;;;0.93;0.93;;;;;;;7.11;100.00;100792.78;10451060;28;20033;-69
2024/02/26 14:31:09;;;;;;;0.60;0.60;;;;;;;7.08;100.00;100814.66;10449954;28;20408;-69
2024/02/26 14:36:09;;;;;;;0.50;0.50;;;;;;;7.14;100.00;100818.53;10449455;28;20029;-69
2024/02/26 14:41:10;;;;;;;0.50;0.50;;;;;;;7.20;100.00;100821.34;10451078;28;20484;-68
2024/02/26 14:46:10;;;;;;;0.50;0.50;;;;;;;7.25;100.00;100839.69;10450727;28;20032;-69
2024/02/26 14:51:11;;;;;;;2.83;1.48;;;;;;;7.06;100.00;100835.56;10449600;28;20044;-69
2024/02/26 14:56:11;;;;;;;0.40;0.40;;;;;;;7.06;100.00;100853.59;10450321;28;20033;-68
2024/02/26 15:01:12;;;;;;;0.82;0.82;;;;;;;6.98;100.00;100854.44;10448896;28;20465;-69
2024/02/26 15:06:12;;;;;;;6.85;3.58;;;;;;;6.91;100.00;100866.94;10450490;28;20033;-69
2024/02/26 15:11:12;;;;;;;7.78;4.28;;;;;;;6.91;100.00;100862.38;10451241;28;20063;-68
2024/02/26 15:16:20;;;;;;;7.75;4.43;;;;;;;7.01;100.00;100877.50;10448643;28;20079;-68
2024/02/26 15:21:20;;;;;;;4.57;4.15;;;;;;;7.06;100.00;100894.81;10453841;28;20496;-71
2024/02/26 15:26:22;;;;;;;9.90;4.85;;;;;;;7.01;100.00;100894.47;10457008;28;20036;-68
2024/02/26 15:31:22;;;;;;;4.30;3.97;;;;;;;6.99;100.00;100896.53;10456709;28;20029;-68
2024/02/26 15:36:22;;;;;;;15.98;3.80;;;;;;;6.86;100.00;100899.78;10456756;28;20502;-69
2024/02/26 15:41:23;;;;;;;6.68;3.83;;;;;;;6.77;100.00;100906.19;10457906;28;20096;-69
2024/02/26 15:46:23;;;;;;;16.15;4.53;;;;;;;6.79;100.00;100914.91;10458107;28;20515;-69
2024/02/26 15:51:24;;;;;;;6.55;3.63;;;;;;;6.66;100.00;100911.91;10457046;28;20057;-68
2024/02/26 15:56:26;;;;;;;5.47;3.45;;;;;;;6.69;100.00;100928.56;10456401;28;20120;-67
2024/02/26 16:01:26;;;;;;;11.60;4.05;;;;;;;6.65;100.00;100938.00;10457468;28;20412;-69
2024/02/26 16:06:46;;;;;;;6.30;3.83;;;;;;;6.64;100.00;100955.16;10439168;28;20124;-69
2024/02/26 16:11:46;;;;;;;6.40;4.93;;;;;;;6.55;100.00;100969.63;10440640;28;20052;-68
2024/02/26 16:16:57;;;;;;;3.65;3.35;;;;;;;6.45;100.00;100977.03;10457361;28;20048;-70
2024/02/26 16:21:58;;;;;;;7.20;4.15;;;;;;;6.39;100.00;100985.78;10456259;28;20025;-68
2024/02/26 16:26:58;;;;;;;6.18;3.10;;;;;;;6.35;100.00;100998.72;10456804;28;20059;-68
2024/02/26 16:31:59;;;;;;;5.75;3.22;;;;;;;6.32;100.00;101001.75;10457142;28;20064;-68
2024/02/26 16:36:59;;;;;;;6.03;4.53;;;;;;;6.26;100.00;101007.78;10455512;28;20043;-68
2024/02/26 16:41:59;;;;;;;17.73;4.95;;;;;;;6.10;100.00;101024.75;10454160;28;20041;-68
2024/02/26 16:47:01;;;;;;;5.43;3.85;;;;;;;5.79;100.00;101025.28;10454268;28;20044;-67
2024/02/26 16:52:02;;;;;;;8.35;3.58;;;;;;;5.61;100.00;101035.28;10453495;28;20049;-68
2024/02/26 16:57:03;;;;;;;4.78;3.85;;;;;;;5.53;100.00;101044.19;10437117;28;20515;-68
2024/02/26 17:02:07;;;;;;;5.53;3.00;;;;;;;5.45;100.00;101054.03;10453062;28;20068;-67
2024/02/26 17:07:07;;;;;;;3.75;3.45;;;;;;;5.37;100.00;101065.59;10453818;28;20033;-68
2024/02/26 17:12:09;;;;;;;10.02;4.72;;;;;;;5.36;100.00;101070.13;10436342;28;20037;-69
2024/02/26 17:17:09;;;;;;;5.00;4.38;;;;;;;5.25;100.00;101089.16;10453810;28;20134;-68
2024/02/26 17:22:11;;;;;;;4.70;3.40;;;;;;;5.24;100.00;101098.22;10452178;28;20065;-69
2024/02/26 17:27:11;;;;;;;5.13;4.63;;;;;;;5.12;100.00;101104.84;10453442;28;20381;-69
2024/02/26 17:32:11;;;;;;;4.20;3.80;;;;;;;5.13;100.00;101122.63;10451905;28;20110;-68
2024/02/26 17:37:12;;;;;;;5.32;4.35;;;;;;;5.10;100.00;101134.53;10453182;28;20060;-68
2024/02/26 17:42:12;;;;;;;5.03;4.32;;;;;;;5.08;100.00;101151.81;10451200;28;20049;-68
2024/02/26 17:47:13;;;;;;;5.20;4.07;;;;;;;4.92;100.00;101154.34;10452880;28;20044;-69
2024/02/26 17:52:13;;;;;;;3.17;2.55;;;;;;;4.89;100.00;101150.13;10450706;28;20489;-68
2024/02/26 17:57:14;;;;;;;3.42;2.88;;;;;;;4.70;100.00;101172.59;10452528;28;20068;-69
2024/02/26 18:02:14;;;;;;;4.40;3.88;;;;;;;4.64;100.00;101190.13;10451276;28;20074;-69
2024/02/26 18:07:14;;;;;;;2.47;2.28;;;;;;;4.62;100.00;101191.28;10452009;28;20143;-68
2024/02/26 18:12:15;;;;;;;6.47;3.20;;;;;;;4.49;100.00;101202.38;10450608;28;20033;-69
2024/02/26 18:17:17;;;;;;;7.65;3.88;;;;;;;4.55;100.00;101220.53;10450664;28;20067;-67
2024/02/26 18:22:17;;;;;;;3.28;2.97;;;;;;;4.39;100.00;101215.00;10450205;28;20039;-68
2024/02/26 18:27:18;;;;;;;3.80;2.83;;;;;;;4.40;100.00;101230.09;10451529;28;20041;-70
2024/02/26 18:32:19;;;;;;;6.00;2.63;;;;;;;4.45;100.00;101232.34;10449973;28;20132;-68
2024/02/26 18:37:19;;;;;;;3.10;2.90;;;;;;;4.57;100.00;101260.63;10449731;28;20048;-67
2024/02/26 18:42:20;;;;;;;4.82;2.40;;;;;;;4.53;100.00;101268.16;10449826;28;20040;-69
2024/02/26 18:47:22;;;;;;;2.30;2.20;;;;;;;4.45;100.00;101285.97;10450489;28;20060;-68
2024/02/26 18:52:23;;;;;;;2.90;2.70;;;;;;;4.32;100.00;101286.31;10450024;28;20045;-68
2024/02/26 18:57:23;;;;;;;3.67;3.10;;;;;;;4.31;100.00;101292.66;10448338;28;20085;-67
2024/02/26 19:02:26;;;;;;;7.88;3.45;;;;;;;4.17;100.00;101296.63;10448959;28;20086;-69
2024/02/26 19:07:26;;;;;;;3.78;2.60;;;;;;;4.25;100.00;101314.69;10449882;28;20037;-68
2024/02/26 19:12:27;;;;;;;2.92;2.53;;;;;;;4.17;100.00;101304.69;10449958;28;20033;-68
2024/02/26 19:17:27;;;;;;;4.43;3.25;;;;;;;4.18;100.00;101341.25;10449833;28;20045;-70
2024/02/26 19:22:28;;;;;;;6.35;3.10;;;;;;;4.15;100.00;101336.16;10447942;28;20072;-69
2024/02/26 19:27:28;;;;;;;3.70;2.58;;;;;;;4.07;100.00;101344.06;10449750;28;20516;-68
2024/02/26 19:32:29;;;;;;;16.48;2.92;;;;;;;4.03;100.00;101348.88;10448114;28;20131;-68
2024/02/26 19:37:29;;;;;;;4.45;2.55;;;;;;;4.08;100.00;101369.88;10449855;28;20041;-69
2024/02/26 19:42:29;;;;;;;2.45;1.92;;;;;;;4.12;100.00;101365.94;10395890;28;20061;-69
2024/02/26 19:47:30;;;;;;;10.82;2.60;;;;;;;3.95;100.00;101362.97;10482467;28;20128;-70
2024/02/26 19:52:30;;;;;;;2.45;2.28;;;;;;;3.94;100.00;101385.41;10489547;28;20084;-69
2024/02/26 19:57:31;;;;;;;2.33;2.10;;;;;;;3.94;100.00;101384.56;10490391;28;20048;-70
2024/02/26 20:02:31;;;;;;;2.53;2.33;;;;;;;3.85;100.00;101391.63;10489237;28;20033;-69
2024/02/26 20:07:32;;;;;;;4.90;2.35;;;;;;;3.84;100.00;101411.38;10493021;28;20035;-69
2024/02/26 20:12:32;;;;;;;2.22;1.83;;;;;;;3.84;100.00;101427.44;10497801;28;20072;-70
2024/02/26 20:17:33;;;;;;;8.20;2.85;;;;;;;3.81;100.00;101434.91;10482527;28;20032;-71
2024/02/26 20:22:33;;;;;;;3.17;2.88;;;;;;;3.69;100.00;101444.91;10497865;28;20178;-70
2024/02/26 20:27:35;;;;;;;5.25;2.75;;;;;;;3.72;100.00;101452.66;10497663;28;20033;-69
2024/02/26 20:32:35;;;;;;;3.85;1.98;;;;;;;3.64;100.00;101444.50;10497050;28;20167;-69
2024/02/26 20:37:35;;;;;;;4.28;1.73;;;;;;;3.58;100.00;101453.91;10496258;28;20052;-69
2024/02/26 20:42:36;;;;;;;7.25;3.00;;;;;;;3.56;100.00;101444.31;10494592;28;20036;-68
2024/02/26 20:47:36;;;;;;;2.00;1.90;;;;;;;3.57;100.00;101451.38;10446279;28;20056;-69
2024/02/26 20:52:37;;;;;;;4.85;2.45;;;;;;;3.67;100.00;101471.84;10496003;28;20045;-69
2024/02/26 20:57:37;;;;;;;4.03;2.67;;;;;;;-98.94;0.00;87023.66;10496682;28;20422;-70
2024/02/26 21:02:38;;;;;;;12.38;3.05;;;;;;;-145.97;100.00;64257.31;10496428;28;20500;-68
2024/02/26 21:07:38;;;;;;;4.35;2.80;;;;;;;-145.97;100.00;64257.31;10496086;28;20040;-69
2024/02/26 21:12:39;;;;;;;2.65;2.40;;;;;;;-145.97;100.00;64257.31;10494422;28;20032;-68
2024/02/26 21:17:39;;;;;;;2.47;2.25;;;;;;;-145.97;100.00;64257.31;10477073;28;20495;-68
2024/02/26 21:22:43;;;;;;;6.50;2.55;;;;;;;-145.97;100.00;64257.31;10495045;28;20119;-68
2024/02/26 21:27:44;;;;;;;2.97;2.60;;;;;;;-145.97;100.00;64257.31;10493966;28;20074;-68
2024/02/26 21:32:44;;;;;;;2.35;2.15;;;;;;;-145.97;100.00;64257.31;10477126;28;20117;-69
2024/02/26 21:37:45;;;;;;;2.25;2.10;;;;;;;-145.97;100.00;64257.31;10493261;28;20123;-70
2024/02/26 21:42:45;;;;;;;2.47;2.38;;;;;;;-145.97;100.00;64257.31;10494581;28;20500;-68
2024/02/26 21:47:47;;;;;;;3.05;2.85;;;;;;;-145.97;100.00;64257.31;10493234;28;20434;-70
2024/02/26 21:52:47;;;;;;;3.42;2.67;;;;;;;-145.97;100.00;64257.31;10493400;28;20385;-68
2024/02/26 21:57:48;;;;;;;4.95;2.45;;;;;;;-145.97;100.00;64257.31;10494038;28;20044;-69
2024/02/26 22:02:48;;;;;;;7.80;3.22;;;;;;;-145.97;100.00;64257.31;10493745;28;20033;-68
2024/02/26 22:07:49;;;;;;;5.03;3.00;;;;;;;-145.97;100.00;64257.31;10475712;28;20177;-67
2024/02/26 22:12:49;;;;;;;4.03;3.15;;;;;;;-145.97;100.00;64257.31;10493316;28;20640;-67
2024/02/26 22:17:50;;;;;;;2.58;2.40;;;;;;;-145.97;100.00;64257.31;10493045;28;20060;-67
2024/02/26 22:22:50;;;;;;;4.70;3.30;;;;;;;-145.97;100.00;64257.31;10492417;28;20037;-67
2024/02/26 22:27:50;;;;;;;4.40;3.47;;;;;;;-145.97;100.00;64257.31;10492711;28;20144;-67
2024/02/26 22:32:51;;;;;;;3.38;3.08;;;;;;;-145.97;100.00;64257.31;10490308;28;20028;-67
2024/02/26 22:37:51;;;;;;;4.68;2.90;;;;;;;-145.97;100.00;64257.31;10491285;28;20064;-68
2024/02/26 22:42:55;;;;;;;4.82;3.60;;;;;;;-145.97;100.00;64257.31;10492375;28;20121;-67
2024/02/26 22:47:55;;;;;;;2.40;2.22;;;;;;;-145.97;100.00;64257.31;10492495;28;20064;-69
2024/02/26 22:52:56;;;;;;;3.85;3.13;;;;;;;-145.97;100.00;64257.31;10491249;28;20091;-69
2024/02/26 22:57:57;;;;;;;3.70;3.10;;;;;;;-145.97;100.00;64257.31;10493339;28;20097;-68